createdAt,value
2022-12-13T00:00:49.723Z,85.53
2022-12-13T00:02:21.835Z,85.66
2022-12-13T00:03:54.720Z,85.86
2022-12-13T00:05:26.716Z,85.82
2022-12-13T00:06:58.766Z,85.83
2022-12-13T00:08:30.713Z,85.87
2022-12-13T00:10:03.039Z,85.67
2022-12-13T00:11:35.507Z,85.66
2022-12-13T00:13:07.794Z,85.49
2022-12-13T00:14:39.845Z,85.61
2022-12-13T00:16:14.039Z,85.83
2022-12-13T00:17:46.056Z,85.86
2022-12-13T00:19:18.721Z,85.99
2022-12-13T00:20:50.742Z,85.93
2022-12-13T00:22:22.783Z,86.54
2022-12-13T00:25:31.468Z,87.09
2022-12-13T00:27:03.551Z,87.09
2022-12-13T00:28:35.497Z,87.07
2022-12-13T00:30:08.056Z,86.76
2022-12-13T00:33:32.166Z,87.07
2022-12-13T00:35:04.345Z,87.14
2022-12-13T00:36:36.314Z,87.13
2022-12-13T00:38:11.931Z,86.79
2022-12-13T00:39:43.938Z,86.59
2022-12-13T00:41:18.160Z,86.60
2022-12-13T00:42:50.080Z,86.45
2022-12-13T00:44:22.107Z,86.42
2022-12-13T00:45:54.211Z,86.78
2022-12-13T00:47:26.206Z,86.87
2022-12-13T00:49:00.363Z,86.52
2022-12-13T00:50:33.342Z,86.44
2022-12-13T00:52:05.355Z,86.65
2022-12-13T00:53:37.483Z,86.49
2022-12-13T00:55:10.023Z,86.55
2022-12-13T00:56:42.221Z,86.61
2022-12-13T00:58:14.203Z,86.76
2022-12-13T00:59:46.251Z,86.61
2022-12-13T01:01:20.357Z,86.12
2022-12-13T01:02:55.207Z,86.36
2022-12-13T01:04:27.281Z,86.61
2022-12-13T01:06:16.457Z,86.56
2022-12-13T01:07:49.131Z,86.09
2022-12-13T01:09:27.666Z,85.51
2022-12-13T01:10:59.662Z,85.42
2022-12-13T01:12:31.609Z,85.27
2022-12-13T01:14:03.592Z,85.71
2022-12-13T01:15:35.523Z,85.40
2022-12-13T01:17:08.059Z,85.82
2022-12-13T01:18:41.167Z,85.97
2022-12-13T01:20:13.127Z,85.79
2022-12-13T01:21:45.178Z,85.58
2022-12-13T01:23:17.388Z,85.57
2022-12-13T01:24:49.588Z,85.70
2022-12-13T01:26:22.228Z,85.77
2022-12-13T01:27:54.179Z,85.20
2022-12-13T01:29:27.224Z,85.13
2022-12-13T01:31:02.050Z,84.75
2022-12-13T01:32:34.031Z,84.78
2022-12-13T01:34:10.791Z,84.69
2022-12-13T01:35:42.827Z,84.55
2022-12-13T01:38:59.310Z,83.99
2022-12-13T01:40:31.513Z,83.40
2022-12-13T01:42:11.762Z,83.70
2022-12-13T01:43:43.715Z,83.69
2022-12-13T01:45:21.655Z,83.45
2022-12-13T01:46:53.736Z,82.15
2022-12-13T01:48:29.303Z,80.90
2022-12-13T01:50:04.898Z,80.22
2022-12-13T01:51:38.831Z,79.88
2022-12-13T01:53:13.810Z,79.48
2022-12-13T01:54:49.040Z,80.09
2022-12-13T01:56:34.284Z,79.69
2022-12-13T01:58:06.501Z,79.25
2022-12-13T01:59:40.525Z,78.57
2022-12-13T02:01:12.615Z,78.17
2022-12-13T02:02:45.593Z,77.67
2022-12-13T02:04:27.207Z,77.68
2022-12-13T02:06:03.999Z,78.12
2022-12-13T02:07:37.899Z,78.43
2022-12-13T02:09:11.167Z,77.70
2022-12-13T02:10:43.737Z,77.48
2022-12-13T02:12:15.907Z,78.64
2022-12-13T02:13:47.962Z,78.44
2022-12-13T02:15:20.389Z,79.32
2022-12-13T02:17:01.970Z,79.99
2022-12-13T02:18:33.908Z,80.59
2022-12-13T02:20:32.110Z,81.13
2022-12-13T02:22:04.171Z,81.55
2022-12-13T02:24:12.916Z,82.03
2022-12-13T02:26:07.726Z,82.62
2022-12-13T02:28:00.770Z,82.77
2022-12-13T02:29:52.315Z,82.66
2022-12-13T02:31:42.887Z,82.91
2022-12-13T02:33:44.082Z,83.26
2022-12-13T02:35:28.798Z,83.50
2022-12-13T02:37:26.762Z,83.49
2022-12-13T02:39:03.819Z,83.83
2022-12-13T02:40:47.484Z,84.10
2022-12-13T02:42:24.659Z,84.08
2022-12-13T02:44:01.233Z,84.09
2022-12-13T02:45:54.653Z,84.27
2022-12-13T02:47:28.002Z,84.65
2022-12-13T02:49:00.597Z,84.80
2022-12-13T02:50:34.331Z,84.70
2022-12-13T02:52:08.571Z,84.82
2022-12-13T02:53:41.699Z,84.42
2022-12-13T02:55:15.613Z,84.49
2022-12-13T02:56:57.635Z,84.50
2022-12-13T02:58:33.940Z,84.71
2022-12-13T03:00:10.378Z,84.91
2022-12-13T03:02:09.789Z,85.34
2022-12-13T03:03:49.041Z,85.77
2022-12-13T03:05:57.013Z,86.12
2022-12-13T03:07:54.184Z,86.04
2022-12-13T03:09:44.093Z,85.96
2022-12-13T03:11:19.194Z,85.90
2022-12-13T03:13:21.892Z,85.77
2022-12-13T03:15:16.491Z,85.25
2022-12-13T03:16:50.547Z,85.08
2022-12-13T03:18:25.164Z,84.84
2022-12-13T03:19:57.109Z,84.67
2022-12-13T03:21:29.327Z,84.62
2022-12-13T03:23:01.304Z,84.50
2022-12-13T03:24:33.322Z,84.61
2022-12-13T03:26:10.210Z,84.30
2022-12-13T03:27:42.213Z,84.11
2022-12-13T03:29:14.776Z,84.35
2022-12-13T03:30:56.686Z,84.06
2022-12-13T03:32:28.707Z,84.11
2022-12-13T03:34:00.703Z,83.86
2022-12-13T03:35:34.386Z,84.18
2022-12-13T03:37:16.053Z,84.16
2022-12-13T03:38:49.610Z,84.29
2022-12-13T03:40:21.429Z,84.45
2022-12-13T03:41:53.488Z,84.47
2022-12-13T03:43:25.868Z,84.31
2022-12-13T03:44:57.804Z,84.54
2022-12-13T03:46:29.776Z,84.59
2022-12-13T03:48:01.820Z,84.65
2022-12-13T03:49:35.827Z,84.09
2022-12-13T03:51:07.980Z,84.61
2022-12-13T03:52:43.127Z,84.51
2022-12-13T03:54:15.170Z,84.62
2022-12-13T03:55:47.726Z,84.26
2022-12-13T03:57:19.655Z,84.14
2022-12-13T03:58:51.853Z,84.18
2022-12-13T04:00:23.906Z,84.54
2022-12-13T04:01:55.894Z,84.66
2022-12-13T04:03:29.348Z,84.59
2022-12-13T04:05:01.401Z,84.55
2022-12-13T04:06:33.518Z,84.40
2022-12-13T04:08:06.074Z,84.36
2022-12-13T04:09:54.567Z,84.25
2022-12-13T04:11:45.178Z,84.26
2022-12-13T04:13:35.323Z,84.25
2022-12-13T04:15:08.062Z,84.40
2022-12-13T04:16:40.196Z,84.59
2022-12-13T04:18:12.201Z,84.33
2022-12-13T04:19:44.296Z,84.45
2022-12-13T04:21:16.362Z,84.25
2022-12-13T04:22:48.326Z,83.76
2022-12-13T04:24:21.345Z,83.39
2022-12-13T04:26:03.040Z,82.62
2022-12-13T04:27:35.046Z,82.05
2022-12-13T04:29:09.828Z,81.91
2022-12-13T04:30:41.774Z,81.46
2022-12-13T04:32:26.320Z,81.07
2022-12-13T04:33:59.028Z,80.90
2022-12-13T04:35:33.134Z,81.00
2022-12-13T04:37:05.643Z,81.13
2022-12-13T04:38:37.604Z,80.90
2022-12-13T04:40:10.202Z,80.93
2022-12-13T04:41:42.295Z,80.72
2022-12-13T04:43:14.263Z,81.02
2022-12-13T04:44:46.433Z,80.93
2022-12-13T04:46:19.360Z,81.08
2022-12-13T04:47:51.365Z,81.01
2022-12-13T04:49:23.354Z,81.00
2022-12-13T04:50:55.639Z,81.06
2022-12-13T04:52:33.124Z,81.23
2022-12-13T04:54:24.325Z,81.23
2022-12-13T04:55:57.502Z,81.42
2022-12-13T04:57:30.776Z,81.58
2022-12-13T04:59:04.031Z,81.75
2022-12-13T05:00:36.073Z,81.85
2022-12-13T05:02:09.373Z,81.86
2022-12-13T05:03:41.418Z,82.23
2022-12-13T05:06:45.177Z,81.92
2022-12-13T05:08:20.109Z,81.92
2022-12-13T05:09:52.092Z,81.87
2022-12-13T05:11:24.108Z,81.45
2022-12-13T05:12:56.087Z,81.57
2022-12-13T05:14:28.088Z,81.61
2022-12-13T05:16:03.023Z,81.13
2022-12-13T05:17:35.069Z,80.77
2022-12-13T05:19:07.139Z,80.54
2022-12-13T05:20:40.160Z,80.38
2022-12-13T05:22:20.899Z,80.25
2022-12-13T05:23:53.191Z,80.38
2022-12-13T05:25:25.810Z,80.37
2022-12-13T05:26:58.586Z,80.16
2022-12-13T05:28:31.015Z,79.96
2022-12-13T05:30:06.826Z,79.57
2022-12-13T05:31:38.922Z,79.42
2022-12-13T05:33:12.413Z,79.62
2022-12-13T05:36:25.790Z,80.04
2022-12-13T05:37:58.020Z,80.36
2022-12-13T05:39:30.383Z,80.37
2022-12-13T05:41:02.447Z,80.73
2022-12-13T05:42:34.521Z,80.84
2022-12-13T05:44:06.477Z,80.89
2022-12-13T05:45:38.691Z,80.61
2022-12-13T05:47:10.786Z,80.40
2022-12-13T05:48:45.356Z,80.63
2022-12-13T05:50:18.021Z,80.79
2022-12-13T05:51:50.117Z,80.78
2022-12-13T05:53:30.876Z,80.85
2022-12-13T05:55:03.915Z,80.68
2022-12-13T05:56:35.945Z,81.05
2022-12-13T05:58:13.144Z,80.65
2022-12-13T05:59:45.444Z,80.82
2022-12-13T06:01:17.621Z,80.57
2022-12-13T06:02:49.715Z,80.85
2022-12-13T06:04:22.913Z,80.83
2022-12-13T06:05:55.439Z,80.40
2022-12-13T06:07:27.766Z,80.21
2022-12-13T06:09:00.044Z,80.04
2022-12-13T06:10:34.178Z,80.03
2022-12-13T06:12:31.897Z,80.46
2022-12-13T06:14:00.973Z,80.47
2022-12-13T06:15:34.815Z,80.41
2022-12-13T06:17:07.160Z,80.67
2022-12-13T06:18:39.351Z,80.90
2022-12-13T06:20:23.219Z,80.87
2022-12-13T06:21:56.573Z,80.99
2022-12-13T06:23:29.878Z,81.05
2022-12-13T06:25:02.087Z,80.72
2022-12-13T06:26:34.238Z,80.94
2022-12-13T06:28:06.278Z,80.93
2022-12-13T06:29:38.632Z,80.86
2022-12-13T06:31:10.912Z,80.82
2022-12-13T06:32:44.067Z,80.32
2022-12-13T06:35:58.374Z,79.62
2022-12-13T06:37:30.153Z,79.63
2022-12-13T06:39:06.099Z,79.89
2022-12-13T06:40:38.110Z,80.34
2022-12-13T06:42:21.581Z,80.08
2022-12-13T06:43:54.681Z,79.79
2022-12-13T06:45:26.831Z,80.05
2022-12-13T06:47:10.768Z,79.86
2022-12-13T06:48:44.838Z,79.77
2022-12-13T06:50:19.916Z,79.32
2022-12-13T06:51:51.955Z,78.96
2022-12-13T06:53:25.183Z,78.89
2022-12-13T06:54:59.996Z,78.63
2022-12-13T06:56:33.064Z,78.31
2022-12-13T06:58:05.151Z,78.66
2022-12-13T06:59:37.288Z,79.02
2022-12-13T07:01:23.831Z,79.48
2022-12-13T07:02:57.090Z,79.87
2022-12-13T07:04:31.089Z,79.83
2022-12-13T07:06:11.135Z,80.00
2022-12-13T07:07:43.147Z,80.08
2022-12-13T07:09:15.282Z,80.24
2022-12-13T07:10:47.389Z,80.66
2022-12-13T07:12:22.602Z,80.44
2022-12-13T07:13:55.435Z,79.74
2022-12-13T07:15:27.453Z,79.46
2022-12-13T07:17:03.600Z,79.46
2022-12-13T07:18:36.039Z,79.59
2022-12-13T07:20:08.852Z,79.50
2022-12-13T07:21:40.874Z,79.35
2022-12-13T07:23:12.967Z,79.40
2022-12-13T07:24:44.950Z,79.21
2022-12-13T07:26:17.434Z,78.48
2022-12-13T07:28:01.580Z,78.32
2022-12-13T07:29:34.448Z,78.44
2022-12-13T07:31:08.183Z,78.47
2022-12-13T07:32:40.256Z,78.52
2022-12-13T07:34:15.592Z,78.40
2022-12-13T07:35:47.972Z,78.67
2022-12-13T07:37:29.773Z,78.08
2022-12-13T07:39:03.133Z,77.99
2022-12-13T07:40:35.998Z,77.70
2022-12-13T07:42:08.116Z,78.08
2022-12-13T07:43:40.291Z,78.26
2022-12-13T07:45:12.329Z,78.06
2022-12-13T07:46:44.347Z,77.90
2022-12-13T07:48:16.467Z,78.28
2022-12-13T07:49:48.456Z,78.14
2022-12-13T07:51:20.704Z,77.96
2022-12-13T07:52:53.094Z,77.71
2022-12-13T07:54:25.369Z,77.82
2022-12-13T07:55:57.554Z,77.83
2022-12-13T07:57:32.601Z,77.88
2022-12-13T07:59:04.792Z,78.56
2022-12-13T08:00:41.340Z,78.95
2022-12-13T08:02:18.747Z,79.08
2022-12-13T08:03:50.730Z,79.47
2022-12-13T08:05:26.601Z,79.79
2022-12-13T08:06:59.159Z,79.84
2022-12-13T08:08:31.930Z,79.82
2022-12-13T08:10:04.375Z,80.12
2022-12-13T08:11:36.425Z,80.08
2022-12-13T08:13:09.065Z,80.04
2022-12-13T08:14:41.139Z,80.34
2022-12-13T08:16:27.913Z,80.50
2022-12-13T08:18:01.681Z,80.62
2022-12-13T08:19:34.535Z,80.58
2022-12-13T08:21:45.419Z,80.38
2022-12-13T08:23:03.902Z,80.60
2022-12-13T08:24:35.873Z,80.63
2022-12-13T08:26:07.851Z,80.45
2022-12-13T08:27:42.914Z,80.50
2022-12-13T08:29:23.065Z,80.95
2022-12-13T08:31:12.579Z,81.08
2022-12-13T08:32:45.023Z,81.07
2022-12-13T08:34:17.043Z,80.97
2022-12-13T08:35:49.123Z,80.97
2022-12-13T08:37:21.056Z,80.95
2022-12-13T08:38:55.929Z,80.52
2022-12-13T08:40:27.891Z,80.54
2022-12-13T08:42:16.040Z,80.62
2022-12-13T08:43:49.490Z,80.71
2022-12-13T08:45:21.901Z,80.45
2022-12-13T08:46:54.026Z,79.87
2022-12-13T08:48:26.141Z,79.95
2022-12-13T08:50:04.534Z,79.88
2022-12-13T08:51:36.971Z,79.70
2022-12-13T08:53:09.307Z,79.35
2022-12-13T08:54:41.607Z,79.49
2022-12-13T08:56:13.672Z,80.43
2022-12-13T08:57:46.441Z,80.35
2022-12-13T08:59:18.672Z,80.15
2022-12-13T09:00:51.217Z,80.38
2022-12-13T09:02:23.200Z,80.49
2022-12-13T09:03:56.322Z,80.97
2022-12-13T09:05:34.303Z,81.12
2022-12-13T09:07:09.022Z,81.30
2022-12-13T09:08:42.038Z,81.01
2022-12-13T09:10:27.223Z,80.43
2022-12-13T09:12:00.211Z,80.28
2022-12-13T09:13:35.029Z,80.25
2022-12-13T09:15:22.533Z,79.88
2022-12-13T09:16:55.258Z,80.07
2022-12-13T09:18:36.365Z,80.40
2022-12-13T09:20:28.749Z,80.16
2022-12-13T09:22:03.030Z,80.03
2022-12-13T09:23:35.758Z,80.05
2022-12-13T09:25:08.157Z,80.55
2022-12-13T09:26:47.037Z,80.51
2022-12-13T09:28:19.174Z,80.52
2022-12-13T09:29:51.330Z,80.53
2022-12-13T09:31:23.671Z,80.33
2022-12-13T09:32:56.887Z,79.86
2022-12-13T09:34:29.005Z,79.68
2022-12-13T09:36:06.134Z,79.63
2022-12-13T09:37:44.137Z,79.50
2022-12-13T09:39:17.793Z,79.71
2022-12-13T09:40:58.986Z,79.47
2022-12-13T09:44:32.730Z,79.93
2022-12-13T09:46:22.119Z,79.98
2022-12-13T09:48:01.216Z,79.83
2022-12-13T09:49:52.873Z,79.90
2022-12-13T09:51:27.299Z,79.42
2022-12-13T09:53:04.081Z,79.54
2022-12-13T09:54:48.846Z,79.71
2022-12-13T09:56:22.790Z,79.69
2022-12-13T09:57:55.116Z,79.67
2022-12-13T09:59:35.408Z,79.80
2022-12-13T10:01:07.542Z,79.59
2022-12-13T10:02:45.753Z,79.40
2022-12-13T10:04:18.936Z,79.02
2022-12-13T10:06:02.207Z,79.04
2022-12-13T10:07:34.209Z,78.78
2022-12-13T10:09:09.701Z,77.96
2022-12-13T10:10:43.924Z,77.46
2022-12-13T10:14:07.378Z,76.83
2022-12-13T10:15:42.287Z,76.12
2022-12-13T10:17:17.287Z,76.38
2022-12-13T10:18:49.224Z,76.13
2022-12-13T10:20:22.332Z,76.15
2022-12-13T10:21:54.431Z,76.22
2022-12-13T10:23:59.405Z,75.35
2022-12-13T10:26:03.346Z,74.41
2022-12-13T10:27:37.154Z,74.29
2022-12-13T10:29:10.565Z,74.76
2022-12-13T10:30:46.454Z,75.03
2022-12-13T10:32:19.869Z,75.78
2022-12-13T10:33:55.851Z,76.48
2022-12-13T10:35:37.003Z,76.57
2022-12-13T10:37:28.071Z,76.01
2022-12-13T10:39:01.014Z,75.97
2022-12-13T10:40:40.731Z,76.25
2022-12-13T10:42:22.859Z,76.56
2022-12-13T10:44:17.702Z,77.11
2022-12-13T10:45:58.962Z,76.85
2022-12-13T10:47:31.398Z,76.10
2022-12-13T10:49:03.998Z,75.52
2022-12-13T10:50:37.357Z,74.97
2022-12-13T10:52:31.441Z,72.22
2022-12-13T10:54:03.762Z,69.53
2022-12-13T10:55:38.207Z,68.00
2022-12-13T10:57:12.034Z,67.95
2022-12-13T10:58:46.778Z,65.77
2022-12-13T11:00:51.151Z,62.13
2022-12-13T11:02:31.242Z,64.36
2022-12-13T11:04:27.195Z,63.77
2022-12-13T11:06:07.918Z,64.17
2022-12-13T11:07:39.955Z,62.28
2022-12-13T11:09:38.872Z,59.30
2022-12-13T11:11:13.395Z,61.02
2022-12-13T11:12:45.492Z,60.89
2022-12-13T11:14:20.482Z,60.34
2022-12-13T11:16:25.720Z,59.78
2022-12-13T11:18:01.007Z,61.36
2022-12-13T11:19:44.961Z,61.29
2022-12-13T11:21:25.318Z,60.25
2022-12-13T11:23:06.468Z,60.96
2022-12-13T11:24:39.455Z,60.36
2022-12-13T11:26:24.477Z,61.23
2022-12-13T11:28:32.282Z,61.12
2022-12-13T11:30:10.325Z,60.86
2022-12-13T11:32:12.963Z,60.66
2022-12-13T11:34:16.145Z,60.62
2022-12-13T11:36:20.062Z,62.07
2022-12-13T11:38:08.357Z,61.77
2022-12-13T11:39:50.801Z,62.26
2022-12-13T11:41:37.957Z,62.37
2022-12-13T11:43:44.401Z,62.31
2022-12-13T11:45:24.105Z,60.25
2022-12-13T11:46:58.847Z,59.51
2022-12-13T11:48:42.261Z,59.04
2022-12-13T11:50:21.994Z,57.90
2022-12-13T11:52:18.033Z,58.00
2022-12-13T11:54:04.051Z,57.09
2022-12-13T11:55:40.070Z,58.15
2022-12-13T11:57:46.672Z,58.96
2022-12-13T11:59:28.403Z,59.50
2022-12-13T12:01:11.154Z,58.63
2022-12-13T12:02:47.606Z,55.29
2022-12-13T12:04:49.134Z,56.03
2022-12-13T12:06:23.968Z,57.15
2022-12-13T12:08:32.076Z,55.27
2022-12-13T12:10:00.007Z,55.39
2022-12-13T12:11:49.571Z,56.99
2022-12-13T12:13:50.811Z,56.03
2022-12-13T12:15:31.944Z,55.06
2022-12-13T12:17:06.732Z,54.29
2022-12-13T12:18:38.925Z,55.27
2022-12-13T12:20:15.561Z,54.73
2022-12-13T12:22:13.662Z,55.27
2022-12-13T12:24:05.790Z,55.37
2022-12-13T12:25:48.612Z,56.41
2022-12-13T12:27:26.017Z,57.13
2022-12-13T12:29:14.302Z,53.41
2022-12-13T12:31:13.083Z,54.28
2022-12-13T12:32:51.424Z,54.32
2022-12-13T12:34:27.597Z,53.02
2022-12-13T12:36:09.438Z,53.84
2022-12-13T12:37:54.907Z,53.55
2022-12-13T12:42:02.933Z,54.87
2022-12-13T12:43:42.475Z,56.83
2022-12-13T12:45:55.437Z,53.61
2022-12-13T12:49:56.109Z,54.41
2022-12-13T12:51:56.116Z,52.43
2022-12-13T12:53:31.337Z,53.28
2022-12-13T12:55:20.423Z,53.73
2022-12-13T12:56:56.084Z,52.82
2022-12-13T12:58:37.472Z,54.76
2022-12-13T13:00:10.217Z,53.70
2022-12-13T13:01:52.263Z,55.71
2022-12-13T13:03:29.748Z,52.28
2022-12-13T13:05:29.334Z,53.76
2022-12-13T13:07:13.285Z,53.41
2022-12-13T13:09:11.026Z,53.35
2022-12-13T13:10:50.197Z,52.36
2022-12-13T13:12:29.654Z,53.82
2022-12-13T13:14:23.009Z,54.26
2022-12-13T13:15:56.716Z,54.01
2022-12-13T13:17:31.895Z,55.33
2022-12-13T13:19:13.015Z,55.08
2022-12-13T13:20:45.084Z,54.01
2022-12-13T13:22:34.396Z,55.46
2022-12-13T13:24:19.342Z,55.26
2022-12-13T13:27:51.073Z,55.39
2022-12-13T13:29:28.810Z,55.00
2022-12-13T13:31:09.456Z,53.72
2022-12-13T13:32:41.730Z,53.26
2022-12-13T13:34:23.723Z,54.96
2022-12-13T13:35:55.893Z,54.55
2022-12-13T13:37:30.040Z,54.85
2022-12-13T13:39:02.093Z,55.61
2022-12-13T13:40:37.010Z,56.67
2022-12-13T13:42:15.087Z,56.11
2022-12-13T13:43:50.220Z,57.05
2022-12-13T13:45:24.832Z,56.99
2022-12-13T13:47:34.921Z,57.67
2022-12-13T13:49:12.970Z,57.67
2022-12-13T13:50:47.469Z,58.13
2022-12-13T13:52:25.305Z,58.40
2022-12-13T13:54:59.332Z,58.28
2022-12-13T13:57:02.184Z,59.66
2022-12-13T13:59:22.126Z,60.28
2022-12-13T14:01:25.797Z,61.13
2022-12-13T14:03:09.026Z,62.09
2022-12-13T14:05:22.299Z,62.68
2022-12-13T14:07:12.711Z,63.65
2022-12-13T14:08:59.581Z,64.13
2022-12-13T14:10:49.957Z,64.49
2022-12-13T14:12:46.782Z,66.33
2022-12-13T14:14:38.567Z,67.49
2022-12-13T14:16:47.591Z,67.00
2022-12-13T14:18:56.596Z,66.95
2022-12-13T14:20:47.276Z,67.66
2022-12-13T14:22:55.510Z,67.40
2022-12-13T14:24:58.451Z,67.70
2022-12-13T14:27:00.133Z,69.12
2022-12-13T14:28:47.300Z,69.32
2022-12-13T14:30:28.357Z,69.19
2022-12-13T14:32:01.488Z,70.14
2022-12-13T14:33:34.187Z,70.91
2022-12-13T14:35:26.055Z,71.21
2022-12-13T14:37:06.105Z,71.25
2022-12-13T14:38:38.175Z,71.38
2022-12-13T14:40:31.813Z,71.67
2022-12-13T14:42:23.254Z,72.39
2022-12-13T14:43:55.395Z,72.90
2022-12-13T14:45:30.430Z,72.74
2022-12-13T14:47:05.342Z,72.49
2022-12-13T14:48:45.821Z,72.56
2022-12-13T14:50:19.422Z,72.33
2022-12-13T14:51:57.735Z,72.28
2022-12-13T14:53:41.693Z,72.01
2022-12-13T14:55:36.945Z,72.47
2022-12-13T14:57:16.600Z,72.98
2022-12-13T14:59:00.137Z,72.92
2022-12-13T15:00:39.682Z,73.38
2022-12-13T15:02:18.812Z,73.42
2022-12-13T15:04:19.335Z,73.39
2022-12-13T15:06:02.451Z,73.89
2022-12-13T15:07:38.070Z,74.12
2022-12-13T15:09:14.632Z,74.35
2022-12-13T16:20:30.275Z,77.17
2022-12-13T16:22:02.520Z,77.11
2022-12-13T16:23:40.903Z,76.93
2022-12-13T16:25:21.000Z,76.61
2022-12-13T16:26:53.004Z,76.70
2022-12-13T16:28:25.930Z,76.93
2022-12-13T16:29:58.415Z,76.92
2022-12-13T16:31:36.091Z,77.00
2022-12-13T16:33:29.650Z,77.23
2022-12-13T16:35:01.075Z,77.32
2022-12-13T16:36:33.382Z,77.44
2022-12-13T16:38:09.417Z,77.66
2022-12-13T16:39:41.934Z,77.90
2022-12-13T16:41:15.149Z,78.15
2022-12-13T16:42:47.254Z,78.26
2022-12-13T16:44:38.991Z,78.24
2022-12-13T16:47:12.886Z,78.31
2022-12-13T16:48:06.721Z,78.75
2022-12-13T16:49:38.932Z,78.88
2022-12-13T16:51:10.989Z,78.97
2022-12-13T16:52:43.245Z,79.13
2022-12-13T16:55:58.271Z,79.85
2022-12-13T16:57:31.207Z,79.68
2022-12-13T16:59:03.226Z,79.67
2022-12-13T17:00:35.312Z,79.81
2022-12-13T17:02:13.453Z,79.60
2022-12-13T17:03:45.778Z,79.19
2022-12-13T17:05:18.010Z,78.95
2022-12-13T17:06:50.982Z,79.20
2022-12-13T17:08:28.082Z,79.34
2022-12-13T17:10:00.358Z,79.18
2022-12-13T17:11:33.584Z,79.32
2022-12-13T17:13:05.531Z,79.28
2022-12-13T17:14:37.466Z,79.34
2022-12-13T17:16:09.465Z,79.33
2022-12-13T17:17:45.022Z,79.50
2022-12-13T17:19:17.693Z,79.60
2022-12-13T17:20:58.737Z,79.21
2022-12-13T17:22:34.049Z,79.15
2022-12-13T17:24:06.441Z,79.20
2022-12-13T17:25:39.282Z,79.05
2022-12-13T17:27:11.712Z,78.52
2022-12-13T17:28:43.799Z,78.69
2022-12-13T17:30:17.188Z,78.39
2022-12-13T17:31:49.140Z,78.31
2022-12-13T17:33:21.071Z,78.50
2022-12-13T17:34:53.339Z,78.36
2022-12-13T17:36:27.148Z,78.57
2022-12-13T17:37:59.457Z,78.65
2022-12-13T17:39:31.971Z,78.65
2022-12-13T17:41:04.253Z,78.71
2022-12-13T17:42:36.545Z,79.08
2022-12-13T17:44:09.144Z,79.24
2022-12-13T17:45:44.102Z,79.46
2022-12-13T17:47:16.885Z,79.42
2022-12-13T17:48:48.990Z,79.42
2022-12-13T17:50:20.953Z,79.44
2022-12-13T17:51:54.658Z,79.35
2022-12-13T17:53:27.019Z,79.64
2022-12-13T17:55:01.231Z,79.66
2022-12-13T17:56:33.268Z,79.95
2022-12-13T17:59:43.114Z,80.30
2022-12-13T18:01:20.572Z,80.50
2022-12-13T18:02:55.323Z,80.66
2022-12-13T18:04:27.829Z,80.83
2022-12-13T18:06:00.267Z,81.19
2022-12-13T18:07:32.765Z,81.23
2022-12-13T18:09:04.886Z,81.31
2022-12-13T18:10:36.975Z,81.62
2022-12-13T18:12:09.008Z,81.71
2022-12-13T18:13:41.261Z,81.52
2022-12-13T18:15:13.339Z,81.45
2022-12-13T18:16:45.464Z,81.36
2022-12-13T18:18:17.682Z,81.05
2022-12-13T18:19:49.702Z,81.10
2022-12-13T18:21:21.850Z,80.97
2022-12-13T18:22:53.900Z,81.06
2022-12-13T18:24:26.364Z,81.36
2022-12-13T18:26:02.466Z,81.23
2022-12-13T18:27:34.600Z,81.11
2022-12-13T18:29:06.912Z,81.21
2022-12-13T18:30:39.308Z,81.32
2022-12-13T18:32:11.277Z,81.28
2022-12-13T18:33:47.452Z,81.16
2022-12-13T18:35:20.328Z,80.94
2022-12-13T18:36:52.483Z,81.12
2022-12-13T18:38:29.186Z,81.13
2022-12-13T18:40:08.307Z,81.34
2022-12-13T18:41:40.681Z,81.15
2022-12-13T18:43:12.836Z,81.12
2022-12-13T18:44:54.550Z,80.73
2022-12-13T18:46:31.328Z,80.46
2022-12-13T18:48:03.559Z,79.95
2022-12-13T18:49:35.577Z,79.93
2022-12-13T18:51:09.031Z,80.05
2022-12-13T18:52:41.798Z,79.96
2022-12-13T18:54:14.385Z,79.93
2022-12-13T18:55:46.480Z,79.68
2022-12-13T18:57:19.186Z,79.57
2022-12-13T18:58:51.747Z,79.70
2022-12-13T19:00:24.683Z,80.11
2022-12-13T19:01:57.203Z,80.01
2022-12-13T19:05:02.139Z,80.11
2022-12-13T19:06:34.174Z,80.07
2022-12-13T19:08:06.326Z,79.96
2022-12-13T19:09:38.407Z,79.94
2022-12-13T19:11:13.654Z,79.95
2022-12-13T19:12:45.678Z,79.82
2022-12-13T19:14:22.330Z,80.02
2022-12-13T19:16:03.315Z,80.23
2022-12-13T19:17:35.408Z,80.42
2022-12-13T19:19:07.615Z,80.61
2022-12-13T19:20:46.332Z,80.67
2022-12-13T19:22:18.291Z,80.89
2022-12-13T19:23:57.091Z,80.47
2022-12-13T19:25:29.763Z,80.12
2022-12-13T19:27:01.830Z,79.99
2022-12-13T19:28:34.591Z,79.88
2022-12-13T19:30:07.338Z,79.91
2022-12-13T19:31:39.417Z,80.10
2022-12-13T19:33:11.869Z,80.18
2022-12-13T19:34:44.386Z,80.37
2022-12-13T19:36:16.722Z,80.40
2022-12-13T19:37:48.761Z,80.60
2022-12-13T19:39:21.020Z,80.79
2022-12-13T19:40:53.163Z,80.86
2022-12-13T19:42:25.160Z,80.59
2022-12-13T19:43:57.115Z,80.55
2022-12-13T19:45:29.147Z,80.32
2022-12-13T19:47:01.296Z,80.31
2022-12-13T19:48:33.804Z,80.36
2022-12-13T19:50:06.423Z,80.56
2022-12-13T19:51:40.040Z,80.84
2022-12-13T19:53:12.386Z,80.66
2022-12-13T19:54:44.361Z,81.14
2022-12-13T19:56:18.878Z,80.97
2022-12-13T19:57:50.951Z,81.29
2022-12-13T19:59:23.272Z,81.43
2022-12-13T20:01:02.242Z,81.75
2022-12-13T20:02:34.626Z,82.13
2022-12-13T20:04:06.742Z,82.56
2022-12-13T20:05:43.923Z,82.64
2022-12-13T20:07:17.619Z,82.67
2022-12-13T20:08:50.231Z,82.63
2022-12-13T20:10:22.511Z,82.81
2022-12-13T20:11:54.449Z,82.72
2022-12-13T20:13:27.290Z,82.55
2022-12-13T20:15:02.976Z,82.78
2022-12-13T20:16:36.220Z,82.89
2022-12-13T20:18:08.383Z,82.83
2022-12-13T20:19:40.602Z,82.73
2022-12-13T20:21:14.968Z,82.81
2022-12-13T20:22:48.522Z,82.66
2022-12-13T20:24:20.446Z,82.57
2022-12-13T20:26:02.847Z,82.86
2022-12-13T20:27:35.097Z,82.84
2022-12-13T20:29:07.208Z,82.97
2022-12-13T20:30:39.285Z,82.99
2022-12-13T20:32:11.313Z,83.02
2022-12-13T20:33:43.414Z,83.08
2022-12-13T20:35:15.487Z,82.99
2022-12-13T20:36:47.566Z,82.91
2022-12-13T20:38:19.586Z,82.90
2022-12-13T20:39:51.514Z,82.75
2022-12-13T20:41:25.531Z,82.94
2022-12-13T20:42:57.656Z,83.06
2022-12-13T20:44:30.980Z,83.08
2022-12-13T20:46:05.676Z,83.10
2022-12-13T20:47:38.214Z,83.44
2022-12-13T20:49:10.455Z,83.41
2022-12-13T20:50:42.558Z,83.59
2022-12-13T20:52:18.967Z,83.76
2022-12-13T20:53:51.950Z,83.93
2022-12-13T20:55:24.080Z,83.97
2022-12-13T20:56:56.184Z,83.85
2022-12-13T20:58:28.571Z,83.75
2022-12-13T21:00:01.283Z,83.72
2022-12-13T21:01:35.652Z,83.78
2022-12-13T21:03:08.138Z,83.79
2022-12-13T21:04:40.461Z,83.54
2022-12-13T21:06:12.719Z,83.11
2022-12-13T21:08:03.178Z,82.96
2022-12-13T21:09:35.233Z,83.02
2022-12-13T21:11:26.038Z,83.06
2022-12-13T21:12:58.300Z,83.46
2022-12-13T21:14:30.476Z,83.61
2022-12-13T21:16:06.487Z,83.64
2022-12-13T21:17:39.451Z,83.51
2022-12-13T21:19:14.436Z,83.44
2022-12-13T21:20:46.382Z,83.58
2022-12-13T21:22:19.331Z,83.44
2022-12-13T21:23:52.065Z,83.47
2022-12-13T21:25:24.202Z,83.61
2022-12-13T21:26:56.805Z,83.38
2022-12-13T21:28:28.821Z,83.69
2022-12-13T21:30:00.865Z,83.38
2022-12-13T21:31:33.197Z,83.65
2022-12-13T21:33:07.550Z,83.27
2022-12-13T21:34:40.404Z,83.47
2022-12-13T21:36:17.485Z,83.36
2022-12-13T21:37:49.501Z,83.43
2022-12-13T21:39:28.379Z,83.57
2022-12-13T21:41:00.644Z,83.71
2022-12-13T21:42:32.660Z,83.68
2022-12-13T21:44:05.278Z,83.47
2022-12-13T21:45:37.349Z,83.32
2022-12-13T21:47:12.257Z,83.93
2022-12-13T21:48:45.398Z,83.97
2022-12-13T21:50:17.390Z,84.04
2022-12-13T21:51:49.375Z,84.11
2022-12-13T21:53:24.723Z,83.93
2022-12-13T21:55:15.289Z,83.99
2022-12-13T21:57:07.364Z,83.65
2022-12-13T21:58:57.956Z,83.65
2022-12-13T22:00:30.481Z,83.52
2022-12-13T22:02:17.059Z,83.94
2022-12-13T22:03:49.187Z,84.03
2022-12-13T22:05:21.189Z,83.90
2022-12-13T22:06:54.281Z,83.77
2022-12-13T22:08:26.725Z,84.04
2022-12-13T22:10:00.787Z,84.34
2022-12-13T22:11:32.782Z,84.23
2022-12-13T22:13:04.810Z,84.22
2022-12-13T22:14:38.380Z,84.35
2022-12-13T22:16:10.991Z,84.51
2022-12-13T22:17:43.655Z,84.28
2022-12-13T22:19:16.525Z,84.30
2022-12-13T22:20:56.831Z,84.28
2022-12-13T22:22:28.864Z,84.13
2022-12-13T22:24:00.940Z,84.02